sensor_id;sensor_type;location;lat;lon;timestamp;temperature;humidity
80695;DHT22;70059;42.702;23.312;2023-05-21T00:01:05;15.90;72.80
80695;DHT22;70059;42.702;23.312;2023-05-21T00:03:31;15.90;74.10
80695;DHT22;70059;42.702;23.312;2023-05-21T00:05:57;15.90;72.90
80695;DHT22;70059;42.702;23.312;2023-05-21T00:08:23;15.90;72.80
80695;DHT22;70059;42.702;23.312;2023-05-21T00:10:48;15.90;72.90
80695;DHT22;70059;42.702;23.312;2023-05-21T00:13:14;15.90;72.90
80695;DHT22;70059;42.702;23.312;2023-05-21T00:15:40;15.80;73.00
80695;DHT22;70059;42.702;23.312;2023-05-21T00:18:06;15.80;73.00
80695;DHT22;70059;42.702;23.312;2023-05-21T00:20:31;15.80;73.20
80695;DHT22;70059;42.702;23.312;2023-05-21T00:22:58;15.70;73.40
80695;DHT22;70059;42.702;23.312;2023-05-21T00:25:23;15.70;73.40
80695;DHT22;70059;42.702;23.312;2023-05-21T00:27:49;15.60;73.30
80695;DHT22;70059;42.702;23.312;2023-05-21T00:30:15;15.60;73.40
80695;DHT22;70059;42.702;23.312;2023-05-21T00:32:41;15.50;73.30
80695;DHT22;70059;42.702;23.312;2023-05-21T00:35:07;15.40;73.30
80695;DHT22;70059;42.702;23.312;2023-05-21T00:37:33;15.40;73.20
80695;DHT22;70059;42.702;23.312;2023-05-21T00:40:02;15.30;73.30
80695;DHT22;70059;42.702;23.312;2023-05-21T00:42:31;15.30;73.30
80695;DHT22;70059;42.702;23.312;2023-05-21T00:44:56;15.20;73.70
80695;DHT22;70059;42.702;23.312;2023-05-21T00:47:29;15.10;74.20
80695;DHT22;70059;42.702;23.312;2023-05-21T00:49:54;15.00;74.00
80695;DHT22;70059;42.702;23.312;2023-05-21T00:52:20;14.90;74.20
80695;DHT22;70059;42.702;23.312;2023-05-21T00:54:48;14.90;74.50
80695;DHT22;70059;42.702;23.312;2023-05-21T00:57:14;15.00;74.70
80695;DHT22;70059;42.702;23.312;2023-05-21T00:59:40;14.90;74.80
80695;DHT22;70059;42.702;23.312;2023-05-21T01:02:06;14.80;74.70
80695;DHT22;70059;42.702;23.312;2023-05-21T01:04:33;14.80;74.90
80695;DHT22;70059;42.702;23.312;2023-05-21T01:07:00;14.90;74.90
80695;DHT22;70059;42.702;23.312;2023-05-21T01:09:26;14.90;74.50
80695;DHT22;70059;42.702;23.312;2023-05-21T01:11:54;14.90;74.30
80695;DHT22;70059;42.702;23.312;2023-05-21T01:14:21;14.90;74.00
80695;DHT22;70059;42.702;23.312;2023-05-21T01:16:49;15.00;73.70
80695;DHT22;70059;42.702;23.312;2023-05-21T01:19:21;15.00;73.70
80695;DHT22;70059;42.702;23.312;2023-05-21T01:21:52;15.00;73.60
80695;DHT22;70059;42.702;23.312;2023-05-21T01:24:20;15.00;73.50
80695;DHT22;70059;42.702;23.312;2023-05-21T01:26:46;15.00;73.30
80695;DHT22;70059;42.702;23.312;2023-05-21T01:29:12;15.00;73.00
80695;DHT22;70059;42.702;23.312;2023-05-21T01:31:51;15.00;72.90
80695;DHT22;70059;42.702;23.312;2023-05-21T01:34:24;15.00;72.70
80695;DHT22;70059;42.702;23.312;2023-05-21T01:36:56;14.90;74.00
80695;DHT22;70059;42.702;23.312;2023-05-21T01:39:33;14.90;72.80
80695;DHT22;70059;42.702;23.312;2023-05-21T01:42:02;14.90;72.80
80695;DHT22;70059;42.702;23.312;2023-05-21T01:44:31;14.90;72.40
80695;DHT22;70059;42.702;23.312;2023-05-21T01:46:57;14.90;72.30
80695;DHT22;70059;42.702;23.312;2023-05-21T01:49:23;14.90;72.30
80695;DHT22;70059;42.702;23.312;2023-05-21T01:51:50;14.90;72.20
80695;DHT22;70059;42.702;23.312;2023-05-21T01:54:16;15.00;72.00
80695;DHT22;70059;42.702;23.312;2023-05-21T01:56:41;15.00;72.10
80695;DHT22;70059;42.702;23.312;2023-05-21T01:59:07;15.00;71.70
80695;DHT22;70059;42.702;23.312;2023-05-21T02:01:33;15.00;71.70
80695;DHT22;70059;42.702;23.312;2023-05-21T02:03:59;15.00;71.50
80695;DHT22;70059;42.702;23.312;2023-05-21T02:06:24;14.90;71.30
80695;DHT22;70059;42.702;23.312;2023-05-21T02:08:50;14.90;70.90
80695;DHT22;70059;42.702;23.312;2023-05-21T02:11:16;14.80;71.90
80695;DHT22;70059;42.702;23.312;2023-05-21T02:13:42;14.90;71.20
80695;DHT22;70059;42.702;23.312;2023-05-21T02:16:11;14.90;71.40
80695;DHT22;70059;42.702;23.312;2023-05-21T02:18:39;14.90;71.20
80695;DHT22;70059;42.702;23.312;2023-05-21T02:21:13;14.90;71.10
80695;DHT22;70059;42.702;23.312;2023-05-21T02:23:38;14.80;71.40
80695;DHT22;70059;42.702;23.312;2023-05-21T02:26:04;14.80;71.90
80695;DHT22;70059;42.702;23.312;2023-05-21T02:28:29;14.70;72.10
80695;DHT22;70059;42.702;23.312;2023-05-21T02:30:57;14.60;72.60
80695;DHT22;70059;42.702;23.312;2023-05-21T02:33:22;14.60;73.00
80695;DHT22;70059;42.702;23.312;2023-05-21T02:35:48;14.50;72.90
80695;DHT22;70059;42.702;23.312;2023-05-21T02:38:13;14.50;73.10
80695;DHT22;70059;42.702;23.312;2023-05-21T02:40:44;14.40;73.60
80695;DHT22;70059;42.702;23.312;2023-05-21T02:43:10;14.30;73.80
80695;DHT22;70059;42.702;23.312;2023-05-21T02:45:35;14.30;73.80
80695;DHT22;70059;42.702;23.312;2023-05-21T02:48:01;14.20;74.10
80695;DHT22;70059;42.702;23.312;2023-05-21T02:50:26;14.20;74.50
80695;DHT22;70059;42.702;23.312;2023-05-21T02:52:52;14.20;74.50
80695;DHT22;70059;42.702;23.312;2023-05-21T02:55:18;14.20;74.60
80695;DHT22;70059;42.702;23.312;2023-05-21T02:57:43;14.20;74.80
80695;DHT22;70059;42.702;23.312;2023-05-21T03:00:16;14.10;75.00
80695;DHT22;70059;42.702;23.312;2023-05-21T03:02:42;14.10;75.00
80695;DHT22;70059;42.702;23.312;2023-05-21T03:05:08;14.10;75.10
80695;DHT22;70059;42.702;23.312;2023-05-21T03:07:34;14.00;75.00
80695;DHT22;70059;42.702;23.312;2023-05-21T03:09:59;14.00;75.60
80695;DHT22;70059;42.702;23.312;2023-05-21T03:12:25;14.00;76.00
80695;DHT22;70059;42.702;23.312;2023-05-21T03:14:51;14.10;75.90
80695;DHT22;70059;42.702;23.312;2023-05-21T03:17:17;14.00;75.80
80695;DHT22;70059;42.702;23.312;2023-05-21T03:19:43;14.10;75.80
80695;DHT22;70059;42.702;23.312;2023-05-21T03:22:09;14.00;75.80
80695;DHT22;70059;42.702;23.312;2023-05-21T03:24:38;14.00;75.60
80695;DHT22;70059;42.702;23.312;2023-05-21T03:27:11;14.10;75.40
80695;DHT22;70059;42.702;23.312;2023-05-21T03:29:36;14.10;75.50
80695;DHT22;70059;42.702;23.312;2023-05-21T03:32:04;14.20;75.30
80695;DHT22;70059;42.702;23.312;2023-05-21T03:34:30;14.40;74.90
80695;DHT22;70059;42.702;23.312;2023-05-21T03:36:59;14.40;74.50
80695;DHT22;70059;42.702;23.312;2023-05-21T03:39:24;14.50;74.20
80695;DHT22;70059;42.702;23.312;2023-05-21T03:41:50;14.50;73.80
80695;DHT22;70059;42.702;23.312;2023-05-21T03:44:16;14.60;73.50
80695;DHT22;70059;42.702;23.312;2023-05-21T03:46:41;14.70;73.30
80695;DHT22;70059;42.702;23.312;2023-05-21T03:49:09;14.80;72.60
80695;DHT22;70059;42.702;23.312;2023-05-21T03:51:35;14.80;72.40
80695;DHT22;70059;42.702;23.312;2023-05-21T03:54:02;15.00;72.30
80695;DHT22;70059;42.702;23.312;2023-05-21T03:56:35;15.00;71.90
80695;DHT22;70059;42.702;23.312;2023-05-21T03:59:00;15.10;71.50
80695;DHT22;70059;42.702;23.312;2023-05-21T04:01:26;15.20;71.10
80695;DHT22;70059;42.702;23.312;2023-05-21T04:03:52;15.30;71.10
80695;DHT22;70059;42.702;23.312;2023-05-21T04:06:18;15.30;70.60
80695;DHT22;70059;42.702;23.312;2023-05-21T04:08:43;15.30;70.40
80695;DHT22;70059;42.702;23.312;2023-05-21T04:11:09;15.40;70.30
80695;DHT22;70059;42.702;23.312;2023-05-21T04:13:35;15.50;70.10
80695;DHT22;70059;42.702;23.312;2023-05-21T04:16:00;15.60;69.90
80695;DHT22;70059;42.702;23.312;2023-05-21T04:18:26;15.70;69.60
80695;DHT22;70059;42.702;23.312;2023-05-21T04:20:51;15.80;69.20
80695;DHT22;70059;42.702;23.312;2023-05-21T04:23:18;15.90;68.80
80695;DHT22;70059;42.702;23.312;2023-05-21T04:25:43;16.10;68.30
80695;DHT22;70059;42.702;23.312;2023-05-21T04:28:09;16.10;67.60
80695;DHT22;70059;42.702;23.312;2023-05-21T04:30:35;16.20;67.20
80695;DHT22;70059;42.702;23.312;2023-05-21T04:33:01;16.30;67.00
80695;DHT22;70059;42.702;23.312;2023-05-21T04:35:27;16.40;66.40
80695;DHT22;70059;42.702;23.312;2023-05-21T04:37:53;16.40;66.20
80695;DHT22;70059;42.702;23.312;2023-05-21T04:40:19;16.50;65.90
80695;DHT22;70059;42.702;23.312;2023-05-21T04:42:51;16.50;65.40
80695;DHT22;70059;42.702;23.312;2023-05-21T04:45:17;16.60;65.70
80695;DHT22;70059;42.702;23.312;2023-05-21T04:47:43;16.70;65.50
80695;DHT22;70059;42.702;23.312;2023-05-21T04:50:09;16.70;65.50
80695;DHT22;70059;42.702;23.312;2023-05-21T04:52:35;16.80;65.80
80695;DHT22;70059;42.702;23.312;2023-05-21T04:55:01;16.80;65.30
80695;DHT22;70059;42.702;23.312;2023-05-21T04:57:27;16.90;65.00
80695;DHT22;70059;42.702;23.312;2023-05-21T04:59:54;17.00;64.80
80695;DHT22;70059;42.702;23.312;2023-05-21T05:02:21;17.10;64.20
80695;DHT22;70059;42.702;23.312;2023-05-21T05:04:46;17.20;63.50
80695;DHT22;70059;42.702;23.312;2023-05-21T05:07:12;17.20;62.90
80695;DHT22;70059;42.702;23.312;2023-05-21T05:09:38;17.40;62.90
80695;DHT22;70059;42.702;23.312;2023-05-21T05:12:03;17.50;62.60
80695;DHT22;70059;42.702;23.312;2023-05-21T05:14:29;17.60;62.00
80695;DHT22;70059;42.702;23.312;2023-05-21T05:16:55;17.70;61.90
80695;DHT22;70059;42.702;23.312;2023-05-21T05:19:27;17.80;62.20
80695;DHT22;70059;42.702;23.312;2023-05-21T05:21:53;17.90;61.80
80695;DHT22;70059;42.702;23.312;2023-05-21T05:24:18;18.10;61.50
80695;DHT22;70059;42.702;23.312;2023-05-21T05:26:44;18.30;60.80
80695;DHT22;70059;42.702;23.312;2023-05-21T05:29:10;18.40;59.80
80695;DHT22;70059;42.702;23.312;2023-05-21T05:31:36;18.50;59.30
80695;DHT22;70059;42.702;23.312;2023-05-21T05:34:08;18.50;57.90
80695;DHT22;70059;42.702;23.312;2023-05-21T05:36:33;18.60;57.70
80695;DHT22;70059;42.702;23.312;2023-05-21T05:38:59;18.50;57.60
80695;DHT22;70059;42.702;23.312;2023-05-21T05:41:25;18.60;57.90
80695;DHT22;70059;42.702;23.312;2023-05-21T05:43:51;18.70;57.80
80695;DHT22;70059;42.702;23.312;2023-05-21T05:46:16;18.70;57.10
80695;DHT22;70059;42.702;23.312;2023-05-21T05:48:42;18.80;57.10
80695;DHT22;70059;42.702;23.312;2023-05-21T05:51:08;18.80;57.20
80695;DHT22;70059;42.702;23.312;2023-05-21T05:53:33;18.80;57.40
80695;DHT22;70059;42.702;23.312;2023-05-21T05:55:59;18.80;57.60
80695;DHT22;70059;42.702;23.312;2023-05-21T05:58:25;18.90;57.50
80695;DHT22;70059;42.702;23.312;2023-05-21T06:00:51;19.00;57.10
80695;DHT22;70059;42.702;23.312;2023-05-21T06:03:16;19.10;56.30
80695;DHT22;70059;42.702;23.312;2023-05-21T06:05:42;19.20;55.60
80695;DHT22;70059;42.702;23.312;2023-05-21T06:08:08;19.30;55.80
80695;DHT22;70059;42.702;23.312;2023-05-21T06:10:34;19.40;55.60
80695;DHT22;70059;42.702;23.312;2023-05-21T06:12:59;19.20;54.90
80695;DHT22;70059;42.702;23.312;2023-05-21T06:15:25;19.20;54.80
80695;DHT22;70059;42.702;23.312;2023-05-21T06:17:51;19.30;54.50
80695;DHT22;70059;42.702;23.312;2023-05-21T06:20:16;19.30;55.20
80695;DHT22;70059;42.702;23.312;2023-05-21T06:22:42;19.30;54.80
80695;DHT22;70059;42.702;23.312;2023-05-21T06:25:08;19.10;52.90
80695;DHT22;70059;42.702;23.312;2023-05-21T06:27:36;19.00;53.30
80695;DHT22;70059;42.702;23.312;2023-05-21T06:30:03;19.10;52.70
80695;DHT22;70059;42.702;23.312;2023-05-21T06:32:36;19.00;52.80
80695;DHT22;70059;42.702;23.312;2023-05-21T06:35:01;19.20;52.60
80695;DHT22;70059;42.702;23.312;2023-05-21T06:37:27;19.20;51.80
80695;DHT22;70059;42.702;23.312;2023-05-21T06:39:53;19.40;51.60
80695;DHT22;70059;42.702;23.312;2023-05-21T06:42:18;19.70;51.10
80695;DHT22;70059;42.702;23.312;2023-05-21T06:44:44;19.90;50.00
80695;DHT22;70059;42.702;23.312;2023-05-21T06:47:10;20.20;49.50
80695;DHT22;70059;42.702;23.312;2023-05-21T06:49:35;20.40;48.00
80695;DHT22;70059;42.702;23.312;2023-05-21T06:52:01;20.50;48.40
80695;DHT22;70059;42.702;23.312;2023-05-21T06:54:27;20.80;47.80
80695;DHT22;70059;42.702;23.312;2023-05-21T06:56:53;20.90;45.80
80695;DHT22;70059;42.702;23.312;2023-05-21T06:59:19;20.60;45.80
80695;DHT22;70059;42.702;23.312;2023-05-21T07:01:44;20.30;46.90
80695;DHT22;70059;42.702;23.312;2023-05-21T07:04:10;20.60;45.90
80695;DHT22;70059;42.702;23.312;2023-05-21T07:06:36;21.00;45.70
80695;DHT22;70059;42.702;23.312;2023-05-21T07:09:02;21.20;43.40
80695;DHT22;70059;42.702;23.312;2023-05-21T07:11:28;21.60;44.60
80695;DHT22;70059;42.702;23.312;2023-05-21T07:13:57;22.00;44.30
80695;DHT22;70059;42.702;23.312;2023-05-21T07:16:24;21.90;42.60
80695;DHT22;70059;42.702;23.312;2023-05-21T07:18:50;21.60;42.10
80695;DHT22;70059;42.702;23.312;2023-05-21T07:21:22;21.30;42.80
80695;DHT22;70059;42.702;23.312;2023-05-21T07:23:48;21.30;43.70
80695;DHT22;70059;42.702;23.312;2023-05-21T07:26:14;21.50;44.00
80695;DHT22;70059;42.702;23.312;2023-05-21T07:28:39;21.90;44.00
80695;DHT22;70059;42.702;23.312;2023-05-21T07:31:05;21.80;42.60
80695;DHT22;70059;42.702;23.312;2023-05-21T07:33:32;21.60;42.30
80695;DHT22;70059;42.702;23.312;2023-05-21T07:35:58;22.10;42.80
80695;DHT22;70059;42.702;23.312;2023-05-21T07:38:30;22.90;41.60
80695;DHT22;70059;42.702;23.312;2023-05-21T07:40:56;23.40;39.80
80695;DHT22;70059;42.702;23.312;2023-05-21T07:43:22;24.30;35.70
80695;DHT22;70059;42.702;23.312;2023-05-21T07:45:48;25.10;34.90
80695;DHT22;70059;42.702;23.312;2023-05-21T07:48:14;27.60;31.30
80695;DHT22;70059;42.702;23.312;2023-05-21T07:50:39;30.00;28.00
80695;DHT22;70059;42.702;23.312;2023-05-21T07:53:05;31.80;25.70
80695;DHT22;70059;42.702;23.312;2023-05-21T07:55:31;33.30;23.40
80695;DHT22;70059;42.702;23.312;2023-05-21T07:57:57;34.00;22.10
80695;DHT22;70059;42.702;23.312;2023-05-21T08:00:23;34.20;21.70
80695;DHT22;70059;42.702;23.312;2023-05-21T08:02:49;34.50;21.40
80695;DHT22;70059;42.702;23.312;2023-05-21T08:05:16;35.40;20.50
80695;DHT22;70059;42.702;23.312;2023-05-21T08:07:42;35.80;20.10
80695;DHT22;70059;42.702;23.312;2023-05-21T08:10:14;35.70;20.20
80695;DHT22;70059;42.702;23.312;2023-05-21T08:12:39;35.60;19.70
80695;DHT22;70059;42.702;23.312;2023-05-21T08:15:05;35.10;19.20
80695;DHT22;70059;42.702;23.312;2023-05-21T08:17:33;33.70;17.50
80695;DHT22;70059;42.702;23.312;2023-05-21T08:19:58;32.40;19.60
80695;DHT22;70059;42.702;23.312;2023-05-21T08:22:24;32.10;20.70
80695;DHT22;70059;42.702;23.312;2023-05-21T08:24:49;32.30;19.90
80695;DHT22;70059;42.702;23.312;2023-05-21T08:27:15;31.90;19.60
80695;DHT22;70059;42.702;23.312;2023-05-21T08:29:41;32.70;18.90
80695;DHT22;70059;42.702;23.312;2023-05-21T08:32:13;34.00;17.70
80695;DHT22;70059;42.702;23.312;2023-05-21T08:34:38;36.60;15.80
80695;DHT22;70059;42.702;23.312;2023-05-21T08:37:04;39.20;13.60
80695;DHT22;70059;42.702;23.312;2023-05-21T08:39:30;41.00;11.90
80695;DHT22;70059;42.702;23.312;2023-05-21T08:42:03;41.90;10.80
80695;DHT22;70059;42.702;23.312;2023-05-21T08:44:32;40.20;11.20
80695;DHT22;70059;42.702;23.312;2023-05-21T08:46:59;39.10;12.40
80695;DHT22;70059;42.702;23.312;2023-05-21T08:49:27;39.50;11.60
80695;DHT22;70059;42.702;23.312;2023-05-21T08:51:55;39.20;11.40
80695;DHT22;70059;42.702;23.312;2023-05-21T08:54:21;40.30;11.20
80695;DHT22;70059;42.702;23.312;2023-05-21T08:56:48;40.80;10.70
80695;DHT22;70059;42.702;23.312;2023-05-21T08:59:15;41.10;10.60
80695;DHT22;70059;42.702;23.312;2023-05-21T09:01:41;43.00;10.00
80695;DHT22;70059;42.702;23.312;2023-05-21T09:04:08;44.60;8.20
80695;DHT22;70059;42.702;23.312;2023-05-21T09:06:35;45.40;7.50
80695;DHT22;70059;42.702;23.312;2023-05-21T09:09:08;44.10;8.20
80695;DHT22;70059;42.702;23.312;2023-05-21T09:11:36;43.80;8.60
80695;DHT22;70059;42.702;23.312;2023-05-21T09:14:02;45.10;7.70
80695;DHT22;70059;42.702;23.312;2023-05-21T09:16:28;46.40;6.90
80695;DHT22;70059;42.702;23.312;2023-05-21T09:18:54;46.30;6.80
80695;DHT22;70059;42.702;23.312;2023-05-21T09:21:26;45.80;6.90
80695;DHT22;70059;42.702;23.312;2023-05-21T09:23:56;46.10;7.10
80695;DHT22;70059;42.702;23.312;2023-05-21T09:26:22;45.40;7.10
80695;DHT22;70059;42.702;23.312;2023-05-21T09:28:49;45.10;7.40
80695;DHT22;70059;42.702;23.312;2023-05-21T09:31:14;40.20;9.30
80695;DHT22;70059;42.702;23.312;2023-05-21T09:33:45;36.60;13.30
80695;DHT22;70059;42.702;23.312;2023-05-21T09:36:12;38.30;11.90
80695;DHT22;70059;42.702;23.312;2023-05-21T09:38:37;34.40;14.00
80695;DHT22;70059;42.702;23.312;2023-05-21T09:41:04;32.80;16.40
80695;DHT22;70059;42.702;23.312;2023-05-21T09:43:30;34.80;15.50
80695;DHT22;70059;42.702;23.312;2023-05-21T09:45:56;36.40;13.10
80695;DHT22;70059;42.702;23.312;2023-05-21T09:48:42;35.30;12.80
80695;DHT22;70059;42.702;23.312;2023-05-21T09:51:14;34.40;13.70
80695;DHT22;70059;42.702;23.312;2023-05-21T09:56:13;37.80;11.10
80695;DHT22;70059;42.702;23.312;2023-05-21T09:58:38;36.30;12.60
80695;DHT22;70059;42.702;23.312;2023-05-21T10:01:06;33.40;14.90
80695;DHT22;70059;42.702;23.312;2023-05-21T10:03:32;32.70;15.90
80695;DHT22;70059;42.702;23.312;2023-05-21T10:06:09;33.10;16.40
80695;DHT22;70059;42.702;23.312;2023-05-21T10:08:39;35.40;13.40
80695;DHT22;70059;42.702;23.312;2023-05-21T10:11:08;37.90;12.10
80695;DHT22;70059;42.702;23.312;2023-05-21T10:13:38;37.00;11.90
80695;DHT22;70059;42.702;23.312;2023-05-21T10:16:06;39.60;10.20
80695;DHT22;70059;42.702;23.312;2023-05-21T10:18:32;38.70;10.50
80695;DHT22;70059;42.702;23.312;2023-05-21T10:20:59;36.20;12.70
80695;DHT22;70059;42.702;23.312;2023-05-21T10:23:26;37.50;11.40
80695;DHT22;70059;42.702;23.312;2023-05-21T10:25:53;36.90;11.90
80695;DHT22;70059;42.702;23.312;2023-05-21T10:28:21;35.50;13.20
80695;DHT22;70059;42.702;23.312;2023-05-21T10:30:48;34.50;14.40
80695;DHT22;70059;42.702;23.312;2023-05-21T10:33:17;34.10;15.40
80695;DHT22;70059;42.702;23.312;2023-05-21T10:35:44;33.70;16.10
80695;DHT22;70059;42.702;23.312;2023-05-21T10:38:18;32.40;16.50
80695;DHT22;70059;42.702;23.312;2023-05-21T10:40:47;31.50;18.00
80695;DHT22;70059;42.702;23.312;2023-05-21T10:43:40;32.00;17.70
80695;DHT22;70059;42.702;23.312;2023-05-21T10:54:56;30.20;19.90
80695;DHT22;70059;42.702;23.312;2023-05-21T10:57:59;28.90;20.30
80695;DHT22;70059;42.702;23.312;2023-05-21T11:00:30;27.30;22.70
80695;DHT22;70059;42.702;23.312;2023-05-21T11:02:57;27.30;23.20
80695;DHT22;70059;42.702;23.312;2023-05-21T11:05:54;27.10;23.00
80695;DHT22;70059;42.702;23.312;2023-05-21T11:08:30;27.10;24.00
80695;DHT22;70059;42.702;23.312;2023-05-21T11:10:57;26.40;23.90
80695;DHT22;70059;42.702;23.312;2023-05-21T11:13:27;25.30;25.10
80695;DHT22;70059;42.702;23.312;2023-05-21T11:21:08;23.60;28.20
80695;DHT22;70059;42.702;23.312;2023-05-21T11:23:53;23.10;28.70
80695;DHT22;70059;42.702;23.312;2023-05-21T11:26:22;22.30;30.50
80695;DHT22;70059;42.702;23.312;2023-05-21T11:31:30;24.20;28.20
80695;DHT22;70059;42.702;23.312;2023-05-21T11:36:43;25.60;26.70
80695;DHT22;70059;42.702;23.312;2023-05-21T11:39:16;25.60;27.00
80695;DHT22;70059;42.702;23.312;2023-05-21T11:44:19;25.00;26.90
80695;DHT22;70059;42.702;23.312;2023-05-21T11:46:47;24.50;28.30
80695;DHT22;70059;42.702;23.312;2023-05-21T11:49:14;24.40;28.80
80695;DHT22;70059;42.702;23.312;2023-05-21T11:51:41;24.40;28.90
80695;DHT22;70059;42.702;23.312;2023-05-21T11:54:13;24.40;28.80
80695;DHT22;70059;42.702;23.312;2023-05-21T11:56:46;24.60;28.90
80695;DHT22;70059;42.702;23.312;2023-05-21T11:59:13;24.70;29.80
80695;DHT22;70059;42.702;23.312;2023-05-21T12:01:41;24.60;28.50
80695;DHT22;70059;42.702;23.312;2023-05-21T12:04:07;24.30;28.70
80695;DHT22;70059;42.702;23.312;2023-05-21T12:06:33;24.10;29.00
80695;DHT22;70059;42.702;23.312;2023-05-21T12:08:58;23.70;29.40
80695;DHT22;70059;42.702;23.312;2023-05-21T12:11:24;23.60;30.30
80695;DHT22;70059;42.702;23.312;2023-05-21T12:13:51;23.40;30.80
80695;DHT22;70059;42.702;23.312;2023-05-21T12:16:17;23.10;31.40
80695;DHT22;70059;42.702;23.312;2023-05-21T12:18:43;23.10;33.20
80695;DHT22;70059;42.702;23.312;2023-05-21T12:21:09;23.00;32.70
80695;DHT22;70059;42.702;23.312;2023-05-21T12:23:35;23.00;33.20
80695;DHT22;70059;42.702;23.312;2023-05-21T12:26:01;23.00;33.20
80695;DHT22;70059;42.702;23.312;2023-05-21T12:28:28;22.50;33.70
80695;DHT22;70059;42.702;23.312;2023-05-21T12:30:53;22.40;34.70
80695;DHT22;70059;42.702;23.312;2023-05-21T12:33:19;22.50;34.60
80695;DHT22;70059;42.702;23.312;2023-05-21T12:35:48;22.50;34.80
80695;DHT22;70059;42.702;23.312;2023-05-21T12:38:14;22.20;35.00
80695;DHT22;70059;42.702;23.312;2023-05-21T12:40:47;22.20;35.30
80695;DHT22;70059;42.702;23.312;2023-05-21T12:43:13;22.20;33.50
80695;DHT22;70059;42.702;23.312;2023-05-21T12:45:38;21.90;34.70
80695;DHT22;70059;42.702;23.312;2023-05-21T12:48:04;22.10;35.30
80695;DHT22;70059;42.702;23.312;2023-05-21T12:50:31;22.30;35.50
80695;DHT22;70059;42.702;23.312;2023-05-21T12:52:57;22.50;35.10
80695;DHT22;70059;42.702;23.312;2023-05-21T12:55:24;22.60;34.90
80695;DHT22;70059;42.702;23.312;2023-05-21T12:58:01;22.60;34.30
80695;DHT22;70059;42.702;23.312;2023-05-21T13:00:28;22.70;34.10
80695;DHT22;70059;42.702;23.312;2023-05-21T13:02:54;22.70;34.70
80695;DHT22;70059;42.702;23.312;2023-05-21T13:05:21;22.70;35.30
80695;DHT22;70059;42.702;23.312;2023-05-21T13:07:47;22.70;35.70
80695;DHT22;70059;42.702;23.312;2023-05-21T13:10:14;22.60;36.50
80695;DHT22;70059;42.702;23.312;2023-05-21T13:12:40;22.60;37.70
80695;DHT22;70059;42.702;23.312;2023-05-21T13:15:06;22.50;38.30
80695;DHT22;70059;42.702;23.312;2023-05-21T13:17:39;22.60;39.80
80695;DHT22;70059;42.702;23.312;2023-05-21T13:20:07;22.60;40.10
80695;DHT22;70059;42.702;23.312;2023-05-21T13:22:46;22.60;40.30
80695;DHT22;70059;42.702;23.312;2023-05-21T13:25:16;22.60;40.00
80695;DHT22;70059;42.702;23.312;2023-05-21T13:27:43;22.50;39.80
80695;DHT22;70059;42.702;23.312;2023-05-21T13:30:09;22.50;40.00
80695;DHT22;70059;42.702;23.312;2023-05-21T13:32:39;22.60;40.20
80695;DHT22;70059;42.702;23.312;2023-05-21T13:35:05;22.60;40.00
80695;DHT22;70059;42.702;23.312;2023-05-21T13:37:32;22.70;40.30
80695;DHT22;70059;42.702;23.312;2023-05-21T13:39:58;22.90;40.20
80695;DHT22;70059;42.702;23.312;2023-05-21T13:42:23;23.20;41.00
80695;DHT22;70059;42.702;23.312;2023-05-21T13:44:49;23.50;39.00
80695;DHT22;70059;42.702;23.312;2023-05-21T13:47:15;24.00;37.20
80695;DHT22;70059;42.702;23.312;2023-05-21T13:49:41;24.40;34.40
80695;DHT22;70059;42.702;23.312;2023-05-21T13:52:13;24.90;32.30
80695;DHT22;70059;42.702;23.312;2023-05-21T13:54:41;25.10;31.70
80695;DHT22;70059;42.702;23.312;2023-05-21T13:57:07;25.20;31.40
80695;DHT22;70059;42.702;23.312;2023-05-21T13:59:32;25.30;31.80
80695;DHT22;70059;42.702;23.312;2023-05-21T14:01:58;25.30;31.80
80695;DHT22;70059;42.702;23.312;2023-05-21T14:04:24;25.10;32.00
80695;DHT22;70059;42.702;23.312;2023-05-21T14:06:50;25.00;32.10
80695;DHT22;70059;42.702;23.312;2023-05-21T14:09:16;24.80;32.50
80695;DHT22;70059;42.702;23.312;2023-05-21T14:11:42;24.40;31.70
80695;DHT22;70059;42.702;23.312;2023-05-21T14:14:08;24.20;33.00
80695;DHT22;70059;42.702;23.312;2023-05-21T14:16:33;24.00;33.30
80695;DHT22;70059;42.702;23.312;2023-05-21T14:18:59;23.90;34.30
80695;DHT22;70059;42.702;23.312;2023-05-21T14:21:25;23.80;34.70
80695;DHT22;70059;42.702;23.312;2023-05-21T14:23:51;23.60;35.80
80695;DHT22;70059;42.702;23.312;2023-05-21T14:26:17;23.60;37.40
80695;DHT22;70059;42.702;23.312;2023-05-21T14:28:44;23.60;38.20
80695;DHT22;70059;42.702;23.312;2023-05-21T14:31:10;23.70;39.30
80695;DHT22;70059;42.702;23.312;2023-05-21T14:33:36;23.80;40.50
80695;DHT22;70059;42.702;23.312;2023-05-21T14:36:06;23.90;39.70
80695;DHT22;70059;42.702;23.312;2023-05-21T14:38:32;24.00;39.30
80695;DHT22;70059;42.702;23.312;2023-05-21T14:40:57;24.10;38.80
80695;DHT22;70059;42.702;23.312;2023-05-21T14:43:29;24.10;38.60
80695;DHT22;70059;42.702;23.312;2023-05-21T14:45:55;24.00;38.70
80695;DHT22;70059;42.702;23.312;2023-05-21T14:48:20;23.90;38.80
80695;DHT22;70059;42.702;23.312;2023-05-21T14:50:49;23.80;38.90
80695;DHT22;70059;42.702;23.312;2023-05-21T14:53:15;23.60;39.10
80695;DHT22;70059;42.702;23.312;2023-05-21T14:55:41;23.50;39.40
80695;DHT22;70059;42.702;23.312;2023-05-21T14:58:07;23.30;40.00
80695;DHT22;70059;42.702;23.312;2023-05-21T15:00:34;23.10;40.30
80695;DHT22;70059;42.702;23.312;2023-05-21T15:03:01;23.00;40.70
80695;DHT22;70059;42.702;23.312;2023-05-21T15:05:27;22.80;40.70
80695;DHT22;70059;42.702;23.312;2023-05-21T15:07:54;22.70;40.60
80695;DHT22;70059;42.702;23.312;2023-05-21T15:10:24;22.60;40.40
80695;DHT22;70059;42.702;23.312;2023-05-21T15:12:50;22.50;40.50
80695;DHT22;70059;42.702;23.312;2023-05-21T15:15:16;22.30;40.70
80695;DHT22;70059;42.702;23.312;2023-05-21T15:17:49;22.20;40.80
80695;DHT22;70059;42.702;23.312;2023-05-21T15:20:15;22.20;41.00
80695;DHT22;70059;42.702;23.312;2023-05-21T15:22:41;22.10;41.10
80695;DHT22;70059;42.702;23.312;2023-05-21T15:25:07;22.00;40.90
80695;DHT22;70059;42.702;23.312;2023-05-21T15:27:33;21.90;40.50
80695;DHT22;70059;42.702;23.312;2023-05-21T15:29:58;21.90;40.60
80695;DHT22;70059;42.702;23.312;2023-05-21T15:32:24;21.90;40.80
80695;DHT22;70059;42.702;23.312;2023-05-21T15:34:50;21.90;40.60
80695;DHT22;70059;42.702;23.312;2023-05-21T15:37:16;21.90;40.20
80695;DHT22;70059;42.702;23.312;2023-05-21T15:39:49;21.80;39.50
80695;DHT22;70059;42.702;23.312;2023-05-21T15:42:15;21.80;39.80